createdAt,value
2017-10-19T16:25:22.185Z,5096
2017-10-19T16:25:50.222Z,5056
2017-10-19T16:26:18.290Z,5040
2017-10-19T16:26:46.330Z,5024
2017-10-19T16:27:14.257Z,4996
2017-10-19T16:27:42.311Z,4976
2017-10-19T16:28:10.581Z,4932
2017-10-19T16:28:38.600Z,4924
2017-10-19T16:29:07.311Z,4916
2017-10-19T16:29:35.127Z,4916
2017-10-19T16:30:03.339Z,4920
2017-10-19T16:30:31.294Z,4916
2017-10-19T16:30:59.127Z,4896
2017-10-19T16:31:27.062Z,4876
2017-10-19T16:31:55.092Z,4852
2017-10-19T16:32:22.932Z,4828
2017-10-19T16:32:50.959Z,4812
2017-10-19T16:33:19.072Z,4796
2017-10-19T16:33:46.999Z,4808
2017-10-19T16:34:15.128Z,4792
2017-10-19T16:34:43.177Z,4844
2017-10-19T16:35:11.102Z,4852
2017-10-19T16:35:39.242Z,4836
2017-10-19T16:36:07.278Z,4824
2017-10-19T16:36:35.301Z,4848
2017-10-19T16:37:03.161Z,4992
2017-10-19T16:37:31.289Z,5200
2017-10-19T16:37:59.136Z,5520
2017-10-19T16:38:27.368Z,5876
2017-10-19T16:38:55.502Z,6028
2017-10-19T16:39:23.440Z,6180
2017-10-19T16:39:51.185Z,6180
2017-10-19T16:40:19.922Z,6184
2017-10-19T16:40:47.972Z,6264
2017-10-19T16:41:15.987Z,6356
2017-10-19T16:41:59.259Z,6388
2017-10-19T16:42:27.189Z,6340
2017-10-19T16:42:55.122Z,6308
2017-10-19T16:43:22.947Z,6260
2017-10-19T16:43:51.094Z,6188
2017-10-19T16:44:19.390Z,6060
2017-10-19T16:44:47.419Z,5956
2017-10-19T16:45:15.562Z,5868
2017-10-19T16:45:43.583Z,5864
2017-10-19T16:46:11.517Z,5892
2017-10-19T16:46:39.374Z,5880
2017-10-19T16:47:08.217Z,5884
2017-10-19T16:47:36.256Z,5904
2017-10-19T16:48:04.165Z,5956
2017-10-19T16:48:31.814Z,6012
2017-10-19T16:48:59.954Z,6032
2017-10-19T16:49:27.876Z,6076
2017-10-19T16:49:55.928Z,6136
2017-10-19T16:50:23.755Z,6228
2017-10-19T16:50:51.698Z,6304
2017-10-19T16:51:19.515Z,6360
2017-10-19T16:51:47.474Z,6416
2017-10-19T16:52:15.508Z,6472
2017-10-19T16:52:43.453Z,6508
2017-10-19T16:53:11.485Z,6504
2017-10-19T16:53:39.538Z,6468
2017-10-19T16:54:07.590Z,6436
2017-10-19T16:54:35.430Z,6324
2017-10-19T16:55:03.854Z,6184
2017-10-19T16:55:31.913Z,6072
2017-10-19T16:55:59.646Z,5984
2017-10-19T16:56:27.599Z,5944
2017-10-19T16:56:55.553Z,5956
2017-10-19T16:57:23.663Z,5984
2017-10-19T16:57:51.721Z,6104
2017-10-19T16:58:19.679Z,6304
2017-10-19T16:58:47.709Z,6532
2017-10-19T16:59:15.895Z,6664
2017-10-19T16:59:43.935Z,6664
2017-10-19T17:00:12.021Z,6580
2017-10-19T17:00:39.958Z,6548
2017-10-19T17:01:07.819Z,6524
2017-10-19T17:01:35.850Z,6524
2017-10-19T17:02:03.911Z,6432
2017-10-19T17:02:31.966Z,6272
2017-10-19T17:02:59.919Z,6156
2017-10-19T17:03:27.729Z,6500
2017-10-19T17:03:55.659Z,6600
2017-10-19T17:04:23.526Z,6664
2017-10-19T17:04:51.662Z,6672
2017-10-19T17:05:19.605Z,6644
2017-10-19T17:06:32.235Z,6320
2017-10-19T17:07:00.180Z,6200
2017-10-19T17:07:28.568Z,6104
2017-10-19T17:07:56.513Z,6048
2017-10-19T17:08:24.481Z,5936
2017-10-19T17:08:52.544Z,5784
2017-10-19T17:09:20.696Z,5624
2017-10-19T17:09:48.714Z,5472
2017-10-19T17:10:16.634Z,5348
2017-10-19T17:10:44.545Z,5244
2017-10-19T17:11:12.646Z,5168
2017-10-19T17:11:40.705Z,5100
2017-10-19T17:12:08.727Z,5044
2017-10-19T17:12:36.652Z,4992
2017-10-19T17:13:04.586Z,4936
2017-10-19T17:13:32.538Z,4864
2017-10-19T17:14:00.663Z,4776
2017-10-19T17:14:28.805Z,4688
2017-10-19T17:14:56.752Z,4588
2017-10-19T17:15:24.783Z,4488
2017-10-19T17:15:52.728Z,4428
2017-10-19T17:16:20.676Z,4440
2017-10-19T17:16:48.615Z,4500
2017-10-19T17:17:17.666Z,4616
2017-10-19T17:17:45.505Z,4768
2017-10-19T17:18:13.330Z,4956
2017-10-19T17:18:41.232Z,5208
2017-10-19T17:19:09.392Z,5496
2017-10-19T17:19:37.410Z,5724
2017-10-19T17:20:05.455Z,5876
2017-10-19T17:20:33.389Z,5956
2017-10-19T17:21:01.431Z,5900
2017-10-19T17:21:29.647Z,5836
2017-10-19T17:21:57.561Z,5748
2017-10-19T17:22:25.792Z,5644
2017-10-19T17:22:53.750Z,5596
2017-10-19T17:23:21.713Z,5592
2017-10-19T17:23:50.370Z,5592
2017-10-19T17:24:18.512Z,5504
2017-10-19T17:24:46.810Z,5368
2017-10-19T17:25:14.840Z,5224
2017-10-19T17:25:43.069Z,5068
2017-10-19T17:26:11.097Z,4916
2017-10-19T17:26:39.454Z,4724
2017-10-19T17:27:07.626Z,4556
2017-10-19T17:27:35.813Z,4452
2017-10-19T17:28:04.298Z,4392
2017-10-19T17:28:32.217Z,4356
2017-10-19T17:29:00.289Z,4312
2017-10-19T17:29:28.481Z,4288
2017-10-19T17:29:56.706Z,4284
2017-10-19T17:30:24.843Z,4292
2017-10-19T17:30:52.858Z,4300
2017-10-19T17:31:21.022Z,4316
2017-10-19T17:31:48.986Z,4332
2017-10-19T17:32:17.018Z,4356
2017-10-19T17:32:44.971Z,4348
2017-10-19T17:33:13.010Z,4376
2017-10-19T17:33:40.850Z,4400
2017-10-19T17:34:08.992Z,4440
2017-10-19T17:34:36.912Z,4480
2017-10-19T17:35:05.073Z,4528
2017-10-19T17:35:33.012Z,4564
2017-10-19T17:36:01.070Z,4588
2017-10-19T17:36:28.905Z,4616
2017-10-19T17:36:56.969Z,4644
2017-10-19T17:37:25.309Z,4608
2017-10-19T17:37:53.473Z,4548
2017-10-19T17:38:21.395Z,4472
2017-10-19T17:38:49.223Z,4380
2017-10-19T17:39:17.318Z,4316
2017-10-19T17:39:45.258Z,4252
2017-10-19T17:40:13.288Z,4228
2017-10-19T17:40:41.108Z,4224
2017-10-19T17:41:09.053Z,4292
2017-10-19T17:41:37.036Z,4408
2017-10-19T17:42:04.854Z,4592
2017-10-19T17:42:32.991Z,4792
2017-10-19T17:43:01.106Z,4980
2017-10-19T17:43:29.260Z,5084
2017-10-19T17:43:57.250Z,5104
2017-10-19T17:44:25.197Z,5072
2017-10-19T17:44:53.216Z,5012
2017-10-19T17:45:21.232Z,4932
2017-10-19T17:45:49.404Z,4824
2017-10-19T17:46:17.688Z,4696
2017-10-19T17:46:45.823Z,4624
2017-10-19T17:47:13.837Z,4584
2017-10-19T17:47:41.895Z,4560
2017-10-19T17:48:10.100Z,4548
2017-10-19T17:48:38.109Z,4536
2017-10-19T17:49:06.162Z,4548
2017-10-19T17:49:34.011Z,4560
2017-10-19T17:50:01.869Z,4612
2017-10-19T17:50:29.791Z,4672
2017-10-19T17:51:00.105Z,4760
2017-10-19T17:51:28.022Z,4856
2017-10-19T17:51:55.984Z,4948
2017-10-19T17:52:23.985Z,5028
2017-10-19T17:52:52.130Z,5112
2017-10-19T17:53:20.359Z,5180
2017-10-19T17:53:48.659Z,5144
2017-10-19T17:54:16.471Z,5064
2017-10-19T17:54:44.673Z,4972
2017-10-19T17:55:12.682Z,4896
2017-10-19T17:55:40.633Z,4832
2017-10-19T17:56:08.469Z,4752
2017-10-19T17:56:36.390Z,4668
2017-10-19T17:57:04.322Z,4576
2017-10-19T17:57:32.264Z,4496
2017-10-19T17:58:00.170Z,4428
2017-10-19T17:58:28.029Z,4384
2017-10-19T17:58:56.048Z,4364
2017-10-19T17:59:24.111Z,4380
2017-10-19T17:59:52.220Z,4400
2017-10-19T18:00:20.389Z,4396
2017-10-19T18:00:48.414Z,4416
2017-10-19T18:01:16.450Z,4440
2017-10-19T18:01:44.384Z,4428
2017-10-19T18:02:12.532Z,4412
2017-10-19T18:02:40.627Z,4380
2017-10-19T18:03:08.613Z,4328
2017-10-19T18:03:36.729Z,4284
2017-10-19T18:04:04.903Z,4280
2017-10-19T18:04:32.803Z,4324
2017-10-19T18:05:00.742Z,4384
2017-10-19T18:05:28.780Z,4444
2017-10-19T18:05:56.818Z,4500
2017-10-19T18:06:24.657Z,4540
2017-10-19T18:06:52.788Z,4576
2017-10-19T18:07:20.789Z,4604
2017-10-19T18:07:48.849Z,4640
2017-10-19T18:08:16.908Z,4668
2017-10-19T18:08:44.914Z,4692
2017-10-19T18:09:13.156Z,4736
2017-10-19T18:09:41.136Z,4776
2017-10-19T18:10:09.037Z,4784
2017-10-19T18:10:37.188Z,4776
2017-10-19T18:11:05.584Z,4764
2017-10-19T18:11:33.530Z,4760
2017-10-19T18:12:01.592Z,4760
2017-10-19T18:12:29.402Z,4744
2017-10-19T18:12:57.355Z,4700
2017-10-19T18:13:25.405Z,4640
2017-10-19T18:13:53.453Z,4568
2017-10-19T18:14:21.207Z,4484
2017-10-19T18:14:49.252Z,4416
2017-10-19T18:15:17.394Z,4376
2017-10-19T18:15:45.436Z,4344
2017-10-19T18:16:14.369Z,4308
2017-10-19T18:16:42.203Z,4272
2017-10-19T18:17:10.237Z,4224
2017-10-19T18:17:38.164Z,4172
2017-10-19T18:18:06.209Z,4128
2017-10-19T18:18:34.284Z,4092
2017-10-19T18:19:02.445Z,4072
2017-10-19T18:19:30.565Z,4052
2017-10-19T18:19:58.692Z,4036
2017-10-19T18:20:26.716Z,4028
2017-10-19T18:20:54.664Z,4016
2017-10-19T18:21:22.426Z,4000
2017-10-19T18:21:50.607Z,3996
2017-10-19T18:22:18.752Z,3988
2017-10-19T18:22:46.899Z,3980
2017-10-19T18:23:14.829Z,3976
2017-10-19T18:23:42.874Z,3976
2017-10-19T18:24:10.938Z,3972
2017-10-19T18:24:39.061Z,3968
2017-10-19T18:25:07.005Z,3972
2017-10-19T18:25:34.958Z,3968
2017-10-19T18:26:02.975Z,3964
2017-10-19T18:26:30.930Z,3964
2017-10-19T18:26:58.853Z,3964
2017-10-19T18:27:27.191Z,3952
2017-10-19T18:27:55.229Z,3952
2017-10-19T18:28:23.257Z,3940
2017-10-19T18:28:51.315Z,3944
2017-10-19T18:29:19.353Z,3940
2017-10-19T18:29:47.373Z,3940
2017-10-19T18:30:15.328Z,3940
2017-10-19T18:30:43.381Z,3948
2017-10-19T18:31:11.228Z,3948
2017-10-19T18:31:39.340Z,3944
2017-10-19T18:32:07.464Z,3952
2017-10-19T18:32:35.296Z,3928
2017-10-19T18:33:03.225Z,3920
2017-10-19T18:33:31.340Z,3912
2017-10-19T18:33:59.391Z,3908
2017-10-19T18:34:27.414Z,3908
2017-10-19T18:34:55.444Z,3908
2017-10-19T18:35:23.553Z,3912
2017-10-19T18:35:51.528Z,3920
2017-10-19T18:36:19.373Z,3908
2017-10-19T18:36:47.326Z,3904
2017-10-19T18:37:15.184Z,3928
2017-10-19T18:37:44.169Z,3940
2017-10-19T18:38:13.105Z,3944
2017-10-19T18:38:41.154Z,3964
2017-10-19T18:39:08.988Z,4000
2017-10-19T18:39:37.086Z,4064
2017-10-19T18:40:05.100Z,4132
2017-10-19T18:40:33.179Z,4176
2017-10-19T18:41:01.284Z,4144
2017-10-19T18:41:29.318Z,4124
2017-10-19T18:41:57.490Z,4112
2017-10-19T18:42:25.552Z,4104
2017-10-19T18:42:53.476Z,4104
2017-10-19T18:43:21.634Z,4096
2017-10-19T18:43:49.470Z,4088
2017-10-19T18:44:17.443Z,4080
2017-10-19T18:44:45.521Z,4060
2017-10-19T18:45:13.475Z,4028
2017-10-19T18:45:41.531Z,3988
2017-10-19T18:46:09.657Z,3956
2017-10-19T18:46:37.686Z,3956
2017-10-19T18:47:05.737Z,3960
2017-10-19T18:47:33.761Z,3956
2017-10-19T18:48:01.840Z,3940
2017-10-19T18:48:30.017Z,3928
2017-10-19T18:48:58.083Z,3916
2017-10-19T18:49:26.218Z,3896
2017-10-19T18:49:54.198Z,3884
2017-10-19T18:50:22.240Z,3872
2017-10-19T18:50:50.305Z,3860
2017-10-19T18:51:18.643Z,3848
2017-10-19T18:51:46.688Z,3828
2017-10-19T18:52:14.542Z,3808
2017-10-19T18:52:42.402Z,3788
2017-10-19T18:53:10.534Z,3768
2017-10-19T18:53:38.397Z,3756
2017-10-19T18:54:06.255Z,3748
2017-10-19T18:54:34.236Z,3748
2017-10-19T18:55:02.154Z,3760
2017-10-19T18:55:30.269Z,3768
2017-10-19T18:55:58.299Z,3772
2017-10-19T18:56:26.162Z,3780
2017-10-19T18:56:54.032Z,3780
2017-10-19T18:57:22.064Z,3784
2017-10-19T18:57:50.087Z,3788
2017-10-19T18:58:18.174Z,3776
2017-10-19T18:58:45.983Z,3808
2017-10-19T18:59:13.926Z,3824
2017-10-19T18:59:41.963Z,3872
2017-10-19T19:00:09.915Z,4000
2017-10-19T19:00:37.753Z,4124
2017-10-19T19:01:05.807Z,4244
2017-10-19T19:01:33.846Z,4348
2017-10-19T19:02:01.882Z,4412
2017-10-19T19:02:29.916Z,4440
2017-10-19T19:02:58.048Z,4464
2017-10-19T19:03:26.098Z,4464
2017-10-19T19:03:53.833Z,4452
2017-10-19T19:04:21.992Z,4432
2017-10-19T19:04:49.937Z,4412
2017-10-19T19:05:18.287Z,4388
2017-10-19T19:05:46.320Z,4360
2017-10-19T19:06:14.255Z,4240
2017-10-19T19:06:42.105Z,4180
2017-10-19T19:07:10.140Z,4120
2017-10-19T19:07:38.245Z,4056
2017-10-19T19:08:06.621Z,4076
2017-10-19T19:08:34.547Z,4016
2017-10-19T19:09:02.682Z,3964
2017-10-19T19:09:30.894Z,3928
2017-10-19T19:09:58.930Z,3876
2017-10-19T19:10:26.738Z,3844
2017-10-19T19:10:54.647Z,3792
2017-10-19T19:11:22.799Z,3752
2017-10-19T19:11:50.710Z,3728
2017-10-19T19:12:18.795Z,3724
2017-10-19T19:12:46.826Z,3732
2017-10-19T19:13:14.744Z,3752
2017-10-19T19:13:43.128Z,3772
2017-10-19T19:14:11.080Z,3796
2017-10-19T19:14:39.218Z,3804
2017-10-19T19:15:07.239Z,3796
2017-10-19T19:15:35.178Z,3768
2017-10-19T19:16:03.293Z,3732
2017-10-19T19:16:31.372Z,3696
2017-10-19T19:16:59.558Z,3680
2017-10-19T19:17:27.473Z,3660
2017-10-19T19:17:55.517Z,3636
2017-10-19T19:18:23.627Z,3608
2017-10-19T19:18:51.545Z,3576
2017-10-19T19:19:19.658Z,3548
2017-10-19T19:19:47.632Z,3532
2017-10-19T19:20:15.666Z,3524
2017-10-19T19:20:43.583Z,3516
2017-10-19T19:21:11.521Z,3504
2017-10-19T19:21:39.442Z,3484
2017-10-19T19:22:07.357Z,3472
2017-10-19T19:22:35.320Z,3460
2017-10-19T19:23:03.168Z,3448
2017-10-19T19:23:31.192Z,3436
2017-10-19T19:23:59.261Z,3388
2017-10-19T19:24:27.965Z,3320
2017-10-19T19:24:56.238Z,3312
2017-10-19T19:25:24.385Z,3296
2017-10-19T19:25:52.421Z,3292
2017-10-19T19:26:20.158Z,3256
2017-10-19T19:26:48.105Z,3236
2017-10-19T19:27:16.261Z,3236
2017-10-19T19:27:44.413Z,3256
2017-10-19T19:28:12.485Z,3236
2017-10-19T19:28:40.389Z,3276
2017-10-19T19:29:08.475Z,3328
2017-10-19T19:29:36.371Z,3372
2017-10-19T19:30:04.259Z,3348
2017-10-19T19:30:32.255Z,3332
2017-10-19T19:31:00.529Z,3332
2017-10-19T19:31:28.468Z,3304
2017-10-19T19:31:56.615Z,3260
2017-10-19T19:32:24.612Z,3212
2017-10-19T19:32:52.637Z,3176
2017-10-19T19:33:20.477Z,3152
2017-10-19T19:33:48.426Z,3172
2017-10-19T19:34:16.370Z,3144
2017-10-19T19:34:44.449Z,3104
2017-10-19T19:35:12.585Z,3072
2017-10-19T19:35:40.724Z,3052
2017-10-19T19:36:08.776Z,3028
2017-10-19T19:36:36.906Z,2988
2017-10-19T19:37:05.059Z,2956
2017-10-19T19:37:33.195Z,2928
2017-10-19T19:38:02.104Z,2880
2017-10-19T19:38:30.149Z,2876
2017-10-19T19:38:58.648Z,2864
2017-10-19T19:39:26.702Z,2844
2017-10-19T19:39:55.001Z,2836
2017-10-19T19:40:23.028Z,2836
2017-10-19T19:40:50.948Z,2828
2017-10-19T19:41:18.892Z,2808
2017-10-19T19:41:47.168Z,2804
2017-10-19T19:42:15.086Z,2796
2017-10-19T19:42:43.491Z,2812
2017-10-19T19:43:11.438Z,2828
2017-10-19T19:43:39.357Z,2848
2017-10-19T19:44:07.282Z,2888
2017-10-19T19:44:35.413Z,2916
2017-10-19T19:45:03.468Z,2928
2017-10-19T19:45:32.284Z,2852
2017-10-19T19:46:00.288Z,2808
2017-10-19T19:46:28.431Z,2820
2017-10-19T19:46:56.368Z,2808
2017-10-19T19:47:24.322Z,2744
2017-10-19T19:47:52.275Z,2656
2017-10-19T19:48:20.129Z,2596
2017-10-19T19:48:48.087Z,2592
2017-10-19T19:49:16.110Z,2640
2017-10-19T19:49:44.058Z,2732
2017-10-19T19:50:12.085Z,2780
2017-10-19T19:50:40.124Z,2836
2017-10-19T19:51:07.985Z,2896
2017-10-19T19:51:35.710Z,2940
2017-10-19T19:52:03.647Z,2956
2017-10-19T19:52:31.715Z,2960
2017-10-19T19:52:59.531Z,2964
2017-10-19T19:53:27.682Z,2948
2017-10-19T19:53:55.829Z,2932
2017-10-19T19:54:23.830Z,2912
2017-10-19T19:54:51.874Z,2900
2017-10-19T19:55:20.027Z,2876
2017-10-19T19:55:47.956Z,2844
2017-10-19T19:56:15.688Z,2816
2017-10-19T19:56:44.092Z,2784
2017-10-19T19:57:26.513Z,2752
2017-10-19T19:57:54.535Z,2728
2017-10-19T19:58:22.468Z,2704
2017-10-19T19:58:50.504Z,2680
2017-10-19T19:59:18.441Z,2664
2017-10-19T19:59:46.457Z,2644
2017-10-19T20:00:14.291Z,2632
2017-10-19T20:00:42.332Z,2620
2017-10-19T20:01:10.360Z,2604
2017-10-19T20:01:38.415Z,2592
2017-10-19T20:02:06.423Z,2576
2017-10-19T20:02:34.453Z,2564
2017-10-19T20:03:02.390Z,2552
2017-10-19T20:03:30.532Z,2544
2017-10-19T20:03:58.639Z,2528
2017-10-19T20:04:26.410Z,2516
2017-10-19T20:04:54.549Z,2504
2017-10-19T20:05:22.535Z,2492
2017-10-19T20:05:50.487Z,2476
2017-10-19T20:06:18.666Z,2456
2017-10-19T20:06:46.793Z,2440
2017-10-19T20:07:14.740Z,2420
2017-10-19T20:07:42.853Z,2396
2017-10-19T20:08:10.794Z,2376
2017-10-19T20:08:38.561Z,2348
2017-10-19T20:09:06.485Z,2324
2017-10-19T20:09:34.416Z,2300
2017-10-19T20:10:02.518Z,2280
2017-10-19T20:10:30.327Z,2252
2017-10-19T20:10:58.274Z,2236
2017-10-19T20:11:26.336Z,2216
2017-10-19T20:11:54.326Z,2196
2017-10-19T20:12:22.340Z,2180
2017-10-19T20:12:50.369Z,2156
2017-10-19T20:13:18.518Z,2140
2017-10-19T20:13:46.566Z,2124
2017-10-19T20:14:14.610Z,2104
2017-10-19T20:14:42.816Z,2088
2017-10-19T20:15:10.848Z,2076
2017-10-19T20:15:38.916Z,2060
2017-10-19T20:16:21.388Z,2040
2017-10-19T20:16:49.417Z,2024
2017-10-19T20:17:17.326Z,2008
2017-10-19T20:17:45.353Z,2000
2017-10-19T20:18:14.290Z,1980
2017-10-19T20:18:42.437Z,1964
2017-10-19T20:19:10.692Z,1948
2017-10-19T20:19:38.636Z,1936
2017-10-19T20:20:06.685Z,1920
2017-10-19T20:20:34.850Z,1908
2017-10-19T20:21:02.868Z,1896
2017-10-19T20:21:30.816Z,1884
2017-10-19T20:21:58.615Z,1872
2017-10-19T20:22:26.607Z,1860
2017-10-19T20:22:54.601Z,1844
2017-10-19T20:23:22.543Z,1832
2017-10-19T20:23:50.600Z,1820
2017-10-19T20:24:18.634Z,1804
2017-10-19T20:24:46.594Z,1792
2017-10-19T20:25:15.068Z,1780
2017-10-19T20:25:57.515Z,1764
2017-10-19T20:26:40.046Z,1748
2017-10-19T20:27:08.203Z,1736
2017-10-19T20:27:36.305Z,1728
2017-10-19T20:28:04.165Z,1716
2017-10-19T20:28:32.185Z,1708
2017-10-19T20:29:00.225Z,1700
2017-10-19T20:29:28.244Z,1688
2017-10-19T20:29:56.353Z,1676
2017-10-19T20:30:24.396Z,1664
2017-10-19T20:30:52.405Z,1652
2017-10-19T20:31:20.204Z,1644
2017-10-19T20:31:48.263Z,1628
2017-10-19T20:32:16.273Z,1620
2017-10-19T20:32:44.208Z,1608
2017-10-19T20:33:12.183Z,1592
2017-10-19T20:33:40.120Z,1580
2017-10-19T20:34:08.676Z,1568
2017-10-19T20:34:36.603Z,1552
2017-10-19T20:35:04.622Z,1536
2017-10-19T20:35:32.678Z,1520
2017-10-19T20:36:00.533Z,1504
2017-10-19T20:36:28.394Z,1492
2017-10-19T20:36:56.511Z,1476
2017-10-19T20:37:24.640Z,1460
2017-10-19T20:37:52.571Z,1440
2017-10-19T20:38:20.409Z,1424
2017-10-19T20:38:48.423Z,1408
2017-10-19T20:39:16.345Z,1392
2017-10-19T20:39:44.279Z,1376
2017-10-19T20:40:12.116Z,1360
2017-10-19T20:40:40.243Z,1344
2017-10-19T20:41:08.369Z,1328
2017-10-19T20:41:36.118Z,1312
2017-10-19T20:42:04.154Z,1296
2017-10-19T20:42:32.268Z,1280
2017-10-19T20:43:00.154Z,1260
2017-10-19T20:43:28.052Z,1244
2017-10-19T20:43:56.165Z,1220
2017-10-19T20:44:24.275Z,1204
2017-10-19T20:44:52.352Z,1180
2017-10-19T20:45:20.172Z,1160
2017-10-19T20:45:48.225Z,1144
2017-10-19T20:46:16.336Z,1120
2017-10-19T20:46:44.385Z,1096
2017-10-19T20:47:12.523Z,1076
2017-10-19T20:47:40.656Z,1056
2017-10-19T20:48:23.312Z,1020
2017-10-19T20:48:51.180Z,1000
2017-10-19T20:49:19.216Z,976
2017-10-19T20:49:47.258Z,952
2017-10-19T20:50:15.369Z,924
2017-10-19T20:50:43.399Z,900
2017-10-19T20:51:11.533Z,872
2017-10-19T20:51:39.664Z,844
2017-10-19T20:52:07.621Z,820
2017-10-19T20:52:35.953Z,792
2017-10-19T20:53:03.858Z,768
2017-10-19T20:53:31.705Z,740
2017-10-19T20:53:59.588Z,716
2017-10-19T20:54:27.426Z,688
2017-10-19T20:54:55.255Z,660
2017-10-19T20:55:23.350Z,632
2017-10-19T20:55:51.180Z,608
2017-10-19T20:56:18.961Z,580
2017-10-19T20:56:46.893Z,560
2017-10-19T20:57:14.818Z,536
2017-10-19T20:57:42.668Z,516
2017-10-19T20:58:10.698Z,496
2017-10-19T20:58:38.869Z,476
2017-10-19T20:59:07.004Z,456
2017-10-19T20:59:35.147Z,440
2017-10-19T21:00:03.274Z,420
2017-10-19T21:00:31.272Z,408
2017-10-19T21:00:59.202Z,388
2017-10-19T21:01:27.353Z,376
2017-10-19T21:01:55.185Z,360
2017-10-19T21:02:23.225Z,344
2017-10-19T21:02:51.372Z,328
2017-10-19T21:03:19.402Z,316
2017-10-19T21:03:47.436Z,300
2017-10-19T21:04:15.467Z,284
2017-10-19T21:04:43.621Z,272
2017-10-19T21:05:11.615Z,260
2017-10-19T21:05:39.723Z,248
2017-10-19T21:06:07.735Z,236
2017-10-19T21:06:35.567Z,224
2017-10-19T21:07:03.745Z,212
2017-10-19T21:07:31.716Z,200
2017-10-19T21:07:59.797Z,188
2017-10-19T21:08:27.807Z,180
2017-10-19T21:08:55.641Z,172
2017-10-19T21:09:23.697Z,160
2017-10-19T21:09:51.720Z,152
2017-10-19T21:10:19.877Z,140
2017-10-19T21:10:48.014Z,136
2017-10-19T21:11:16.061Z,128
2017-10-19T21:11:44.079Z,120
2017-10-19T21:12:12.179Z,112
2017-10-19T21:12:39.916Z,104
2017-10-19T21:13:07.784Z,100
2017-10-19T21:13:35.719Z,92
2017-10-19T21:14:03.670Z,88
2017-10-19T21:14:31.566Z,80
2017-10-19T21:14:59.490Z,76
2017-10-19T21:15:27.497Z,76
2017-10-19T21:15:55.198Z,68
2017-10-19T21:16:37.948Z,60
2017-10-19T21:17:05.922Z,56
2017-10-19T21:17:33.972Z,56
2017-10-19T21:18:01.891Z,48
2017-10-19T21:18:29.785Z,44
2017-10-19T21:18:58.478Z,44
2017-10-19T21:19:26.355Z,40
2017-10-19T21:19:54.455Z,36
2017-10-19T21:20:22.487Z,32
2017-10-19T21:20:51.264Z,28
2017-10-19T21:21:19.265Z,24
2017-10-19T21:21:47.177Z,20
2017-10-19T21:22:15.336Z,20
2017-10-19T21:22:57.985Z,20
2017-10-19T21:23:25.901Z,16
2017-10-19T21:23:53.936Z,12
2017-10-19T21:24:22.046Z,12
2017-10-19T21:24:50.076Z,12
2017-10-19T21:25:18.213Z,12
2017-10-19T21:25:46.251Z,8
2017-10-19T21:26:14.263Z,8
2017-10-19T21:26:42.293Z,8
2017-10-19T21:27:10.405Z,4
2017-10-19T21:27:38.425Z,8
2017-10-19T21:28:06.451Z,4
2017-10-19T21:28:34.347Z,4
2017-10-19T21:29:02.373Z,4
2017-10-19T21:29:30.486Z,4
2017-10-19T21:29:58.567Z,4
2017-10-19T21:30:26.605Z,4
2017-10-19T21:30:54.503Z,4
2017-10-19T21:31:22.544Z,0
2017-10-19T21:31:50.476Z,0
2017-10-19T21:32:18.419Z,0
2017-10-19T21:32:46.564Z,0
2017-10-19T21:33:14.493Z,0
2017-10-19T21:33:42.613Z,0
2017-10-19T21:34:10.640Z,0
2017-10-19T21:34:38.785Z,0
2017-10-19T21:35:06.698Z,0
2017-10-19T21:35:34.847Z,0
2017-10-19T21:36:02.896Z,0
2017-10-19T21:36:30.933Z,0
2017-10-19T21:36:59.066Z,0
2017-10-19T21:37:27.008Z,0
2017-10-19T21:37:55.040Z,0
2017-10-19T21:38:23.030Z,0
2017-10-19T21:38:51.057Z,0
2017-10-19T21:39:19.098Z,0
2017-10-19T21:39:47.039Z,0
2017-10-19T21:40:15.124Z,0
2017-10-19T21:40:43.422Z,0
2017-10-19T21:41:11.357Z,0
2017-10-19T21:41:39.384Z,0
2017-10-19T21:42:07.504Z,0
2017-10-19T21:42:35.613Z,0
2017-10-19T21:43:03.648Z,0
2017-10-19T21:43:31.599Z,0
2017-10-19T21:43:59.636Z,0
2017-10-19T21:44:27.677Z,0
2017-10-19T21:44:55.840Z,0
2017-10-19T21:45:23.828Z,0
2017-10-19T21:45:51.974Z,0
2017-10-19T21:46:19.877Z,0
2017-10-19T21:46:48.005Z,0
2017-10-19T21:47:16.117Z,0
2017-10-19T21:47:44.007Z,0
2017-10-19T21:48:11.770Z,0
2017-10-19T21:48:39.722Z,0
2017-10-19T21:49:07.761Z,0
2017-10-19T21:49:35.785Z,0
2017-10-19T21:50:03.689Z,0
2017-10-19T21:50:31.710Z,0
2017-10-19T21:50:59.767Z,0
2017-10-19T21:51:27.738Z,0
2017-10-19T21:51:55.762Z,0
2017-10-19T21:52:23.784Z,0
2017-10-19T21:52:51.718Z,0
2017-10-19T21:53:19.843Z,0
2017-10-19T21:53:47.958Z,0
2017-10-19T21:54:15.850Z,0
2017-10-19T21:54:43.867Z,0
2017-10-19T21:55:11.806Z,0
2017-10-19T21:55:39.637Z,0
2017-10-19T21:56:07.746Z,0
2017-10-19T21:56:35.883Z,0
2017-10-19T21:57:46.420Z,0
2017-10-19T21:58:14.134Z,0
2017-10-19T21:58:42.169Z,0
2017-10-19T21:59:10.193Z,0
2017-10-19T21:59:38.198Z,0
2017-10-19T22:00:06.223Z,0
2017-10-19T22:00:34.140Z,0
2017-10-19T22:01:02.121Z,0
2017-10-19T22:01:29.933Z,0
2017-10-19T22:01:57.767Z,0
2017-10-19T22:02:25.575Z,0
2017-10-19T22:02:53.605Z,0
2017-10-19T22:03:21.636Z,0
2017-10-19T22:03:49.742Z,0
2017-10-19T22:04:17.747Z,0
2017-10-19T22:04:46.012Z,0
2017-10-19T22:05:14.406Z,0
2017-10-19T22:05:42.885Z,0
2017-10-19T22:06:11.361Z,0
2017-10-19T22:06:39.879Z,0
2017-10-19T22:07:08.282Z,0
2017-10-19T22:07:36.660Z,0
2017-10-19T22:08:05.024Z,0
2017-10-19T22:08:33.537Z,0
2017-10-19T22:09:01.861Z,0
2017-10-19T22:09:30.432Z,0
2017-10-19T22:09:59.009Z,0
2017-10-19T22:10:27.587Z,0
2017-10-19T22:10:56.002Z,0
2017-10-19T22:11:24.298Z,0
2017-10-19T22:11:52.289Z,0
2017-10-19T22:12:20.156Z,0
2017-10-19T22:12:48.306Z,0
2017-10-19T22:13:16.197Z,0
2017-10-19T22:13:44.387Z,0
2017-10-19T22:14:12.441Z,0
2017-10-19T22:14:40.364Z,0
2017-10-19T22:15:10.143Z,0
2017-10-19T22:15:38.423Z,0
2017-10-19T22:16:06.827Z,0
2017-10-19T22:16:34.924Z,0
2017-10-19T22:17:03.012Z,0
2017-10-19T22:17:31.367Z,0
2017-10-19T22:17:59.793Z,0
2017-10-19T22:18:28.539Z,0
2017-10-19T22:18:56.956Z,0
2017-10-19T22:19:25.393Z,0
2017-10-19T22:19:53.781Z,0
2017-10-19T22:20:22.054Z,0
2017-10-19T22:20:50.192Z,0
2017-10-19T22:21:18.262Z,0
2017-10-19T22:21:46.327Z,0
2017-10-19T22:22:14.665Z,0
2017-10-19T22:22:43.011Z,0
2017-10-19T22:23:11.234Z,0
2017-10-19T22:23:39.274Z,0
2017-10-19T22:24:07.122Z,0
2017-10-19T22:24:35.248Z,0
2017-10-19T22:25:03.277Z,0
2017-10-19T22:25:31.172Z,0
2017-10-19T22:25:59.292Z,0
2017-10-19T22:26:27.215Z,0
2017-10-19T22:26:55.226Z,0
2017-10-19T22:27:23.257Z,0
2017-10-19T22:27:51.277Z,0
2017-10-19T22:28:19.304Z,0
2017-10-19T22:28:47.126Z,0
2017-10-19T22:29:15.210Z,0
2017-10-19T22:29:43.286Z,0
2017-10-19T22:30:11.361Z,0
2017-10-19T22:30:39.508Z,0
2017-10-19T22:31:07.529Z,0
2017-10-19T22:31:35.527Z,0
2017-10-19T22:32:03.406Z,0
2017-10-19T22:32:31.398Z,0
2017-10-19T22:32:59.543Z,0
2017-10-19T22:33:27.479Z,0
2017-10-19T22:33:55.405Z,0
2017-10-19T22:34:23.404Z,0
2017-10-19T22:34:51.393Z,0
2017-10-19T22:35:19.423Z,0
2017-10-19T22:35:47.535Z,0
2017-10-19T22:36:15.539Z,0
2017-10-19T22:36:44.223Z,0
2017-10-19T22:37:12.080Z,0
2017-10-19T22:37:39.878Z,0
2017-10-19T22:38:07.852Z,0
2017-10-19T22:38:55.073Z,0
2017-10-19T22:39:23.083Z,0
2017-10-19T22:39:51.086Z,0
2017-10-19T22:40:19.058Z,0
2017-10-19T22:40:47.059Z,0
2017-10-19T22:41:15.251Z,0
2017-10-19T22:41:43.310Z,0
2017-10-19T22:42:11.253Z,0
2017-10-19T22:42:39.232Z,0
2017-10-19T22:43:07.222Z,0
2017-10-19T22:43:35.124Z,0
2017-10-19T22:44:03.007Z,0
2017-10-19T22:44:30.818Z,0
2017-10-19T22:44:58.832Z,0
2017-10-19T22:45:26.932Z,0
2017-10-19T22:45:54.835Z,0
2017-10-19T22:46:22.830Z,0
2017-10-19T22:46:50.937Z,0
2017-10-19T22:47:19.042Z,0
2017-10-19T22:47:46.907Z,0
2017-10-19T22:48:14.817Z,0
2017-10-19T22:48:42.819Z,0
2017-10-19T22:49:10.852Z,0
2017-10-19T22:49:38.965Z,0
2017-10-19T22:50:06.967Z,0
2017-10-19T22:50:34.945Z,0
2017-10-19T22:51:02.991Z,0
2017-10-19T22:51:31.068Z,0
2017-10-19T22:51:59.109Z,0
2017-10-19T22:52:27.239Z,0